sensor_id;sensor_type;location;lat;lon;timestamp;P1;durP1;ratioP1;P2;durP2;ratioP2
45806;SDS011;31507;51.494;7.518;2022-10-16T00:01:18;10.18;;;2.58;;
45806;SDS011;31507;51.494;7.518;2022-10-16T00:03:46;4.22;;;1.88;;
45806;SDS011;31507;51.494;7.518;2022-10-16T00:06:13;4.80;;;2.30;;
45806;SDS011;31507;51.494;7.518;2022-10-16T00:08:40;6.90;;;2.17;;
45806;SDS011;31507;51.494;7.518;2022-10-16T00:11:06;4.25;;;1.75;;
45806;SDS011;31507;51.494;7.518;2022-10-16T00:13:37;9.63;;;2.42;;
45806;SDS011;31507;51.494;7.518;2022-10-16T00:16:04;4.30;;;2.10;;
45806;SDS011;31507;51.494;7.518;2022-10-16T00:18:32;6.80;;;2.10;;
45806;SDS011;31507;51.494;7.518;2022-10-16T00:21:01;3.65;;;2.30;;
45806;SDS011;31507;51.494;7.518;2022-10-16T00:23:29;4.22;;;2.28;;
45806;SDS011;31507;51.494;7.518;2022-10-16T00:25:56;6.00;;;1.90;;
45806;SDS011;31507;51.494;7.518;2022-10-16T00:28:24;9.57;;;2.05;;
45806;SDS011;31507;51.494;7.518;2022-10-16T00:30:50;6.28;;;2.20;;
45806;SDS011;31507;51.494;7.518;2022-10-16T00:33:16;3.85;;;1.92;;
45806;SDS011;31507;51.494;7.518;2022-10-16T00:35:41;6.95;;;2.00;;
45806;SDS011;31507;51.494;7.518;2022-10-16T00:38:07;4.30;;;1.75;;
45806;SDS011;31507;51.494;7.518;2022-10-16T00:40:33;5.35;;;1.75;;
45806;SDS011;31507;51.494;7.518;2022-10-16T00:42:58;4.80;;;1.80;;
45806;SDS011;31507;51.494;7.518;2022-10-16T00:45:24;8.93;;;2.05;;
45806;SDS011;31507;51.494;7.518;2022-10-16T00:47:49;4.90;;;1.90;;
45806;SDS011;31507;51.494;7.518;2022-10-16T00:50:27;4.30;;;1.75;;
45806;SDS011;31507;51.494;7.518;2022-10-16T00:52:58;3.95;;;1.67;;
45806;SDS011;31507;51.494;7.518;2022-10-16T00:55:26;7.03;;;2.33;;
45806;SDS011;31507;51.494;7.518;2022-10-16T00:57:54;6.93;;;1.70;;
45806;SDS011;31507;51.494;7.518;2022-10-16T01:00:23;5.00;;;1.90;;
45806;SDS011;31507;51.494;7.518;2022-10-16T01:02:54;3.33;;;1.77;;
45806;SDS011;31507;51.494;7.518;2022-10-16T01:05:22;5.72;;;1.75;;
45806;SDS011;31507;51.494;7.518;2022-10-16T01:12:59;2.95;;;1.30;;
45806;SDS011;31507;51.494;7.518;2022-10-16T01:15:42;5.90;;;1.73;;
45806;SDS011;31507;51.494;7.518;2022-10-16T01:18:28;5.00;;;1.52;;
45806;SDS011;31507;51.494;7.518;2022-10-16T01:20:59;2.90;;;1.45;;
45806;SDS011;31507;51.494;7.518;2022-10-16T01:26:23;2.45;;;1.30;;
45806;SDS011;31507;51.494;7.518;2022-10-16T01:29:07;2.75;;;1.40;;
45806;SDS011;31507;51.494;7.518;2022-10-16T01:31:44;4.75;;;1.50;;
45806;SDS011;31507;51.494;7.518;2022-10-16T01:34:17;2.88;;;1.48;;
45806;SDS011;31507;51.494;7.518;2022-10-16T01:36:54;3.72;;;1.65;;
45806;SDS011;31507;51.494;7.518;2022-10-16T01:39:25;2.78;;;1.40;;
45806;SDS011;31507;51.494;7.518;2022-10-16T01:42:00;2.83;;;1.30;;
45806;SDS011;31507;51.494;7.518;2022-10-16T01:44:33;3.97;;;2.00;;
45806;SDS011;31507;51.494;7.518;2022-10-16T01:47:01;1.95;;;1.33;;
45806;SDS011;31507;51.494;7.518;2022-10-16T01:49:29;3.88;;;1.67;;
45806;SDS011;31507;51.494;7.518;2022-10-16T01:51:59;5.03;;;1.60;;
45806;SDS011;31507;51.494;7.518;2022-10-16T01:54:27;3.35;;;1.58;;
45806;SDS011;31507;51.494;7.518;2022-10-16T01:56:56;5.70;;;1.70;;
45806;SDS011;31507;51.494;7.518;2022-10-16T01:59:23;5.13;;;1.63;;
45806;SDS011;31507;51.494;7.518;2022-10-16T02:01:53;2.13;;;1.52;;
45806;SDS011;31507;51.494;7.518;2022-10-16T02:04:27;7.53;;;1.75;;
45806;SDS011;31507;51.494;7.518;2022-10-16T02:06:58;3.80;;;1.70;;
45806;SDS011;31507;51.494;7.518;2022-10-16T02:09:24;4.60;;;2.00;;
45806;SDS011;31507;51.494;7.518;2022-10-16T02:11:51;4.47;;;1.65;;
45806;SDS011;31507;51.494;7.518;2022-10-16T02:14:19;3.92;;;1.50;;
45806;SDS011;31507;51.494;7.518;2022-10-16T02:16:47;2.88;;;1.35;;
45806;SDS011;31507;51.494;7.518;2022-10-16T02:19:13;5.15;;;1.67;;
45806;SDS011;31507;51.494;7.518;2022-10-16T02:21:47;3.17;;;1.75;;
45806;SDS011;31507;51.494;7.518;2022-10-16T02:24:19;4.05;;;1.60;;
45806;SDS011;31507;51.494;7.518;2022-10-16T02:27:05;4.40;;;1.60;;
45806;SDS011;31507;51.494;7.518;2022-10-16T02:29:42;4.00;;;2.00;;
45806;SDS011;31507;51.494;7.518;2022-10-16T02:32:15;3.72;;;1.50;;
45806;SDS011;31507;51.494;7.518;2022-10-16T02:34:46;4.28;;;1.63;;
45806;SDS011;31507;51.494;7.518;2022-10-16T02:37:14;4.57;;;1.40;;
45806;SDS011;31507;51.494;7.518;2022-10-16T02:39:40;4.75;;;1.52;;
45806;SDS011;31507;51.494;7.518;2022-10-16T02:42:11;3.97;;;1.23;;
45806;SDS011;31507;51.494;7.518;2022-10-16T02:44:40;3.55;;;1.50;;
45806;SDS011;31507;51.494;7.518;2022-10-16T02:47:06;5.45;;;1.70;;
45806;SDS011;31507;51.494;7.518;2022-10-16T02:49:31;4.93;;;1.38;;
45806;SDS011;31507;51.494;7.518;2022-10-16T02:51:57;1.80;;;1.27;;
45806;SDS011;31507;51.494;7.518;2022-10-16T02:54:23;7.45;;;1.50;;
45806;SDS011;31507;51.494;7.518;2022-10-16T02:56:49;1.83;;;1.42;;
45806;SDS011;31507;51.494;7.518;2022-10-16T02:59:14;3.83;;;1.45;;
45806;SDS011;31507;51.494;7.518;2022-10-16T03:01:40;2.67;;;1.40;;
45806;SDS011;31507;51.494;7.518;2022-10-16T03:04:06;4.75;;;1.30;;
45806;SDS011;31507;51.494;7.518;2022-10-16T03:06:32;4.32;;;1.33;;
45806;SDS011;31507;51.494;7.518;2022-10-16T03:08:57;3.92;;;1.40;;
45806;SDS011;31507;51.494;7.518;2022-10-16T03:11:23;4.25;;;1.30;;
45806;SDS011;31507;51.494;7.518;2022-10-16T03:13:48;1.65;;;1.15;;
45806;SDS011;31507;51.494;7.518;2022-10-16T03:16:14;6.13;;;1.30;;
45806;SDS011;31507;51.494;7.518;2022-10-16T03:18:40;3.20;;;1.08;;
45806;SDS011;31507;51.494;7.518;2022-10-16T03:21:05;3.85;;;1.30;;
45806;SDS011;31507;51.494;7.518;2022-10-16T03:23:31;2.58;;;1.48;;
45806;SDS011;31507;51.494;7.518;2022-10-16T03:25:57;7.93;;;1.45;;
45806;SDS011;31507;51.494;7.518;2022-10-16T03:28:22;5.32;;;1.80;;
45806;SDS011;31507;51.494;7.518;2022-10-16T03:30:48;2.28;;;1.30;;
45806;SDS011;31507;51.494;7.518;2022-10-16T03:33:13;3.50;;;1.58;;
45806;SDS011;31507;51.494;7.518;2022-10-16T03:35:39;4.15;;;1.60;;
45806;SDS011;31507;51.494;7.518;2022-10-16T03:38:04;3.65;;;1.58;;
45806;SDS011;31507;51.494;7.518;2022-10-16T03:40:30;4.53;;;1.40;;
45806;SDS011;31507;51.494;7.518;2022-10-16T03:42:57;4.25;;;1.42;;
45806;SDS011;31507;51.494;7.518;2022-10-16T03:45:23;2.72;;;1.17;;
45806;SDS011;31507;51.494;7.518;2022-10-16T03:47:49;4.43;;;1.58;;
45806;SDS011;31507;51.494;7.518;2022-10-16T03:50:15;5.45;;;1.23;;
45806;SDS011;31507;51.494;7.518;2022-10-16T03:52:40;1.65;;;1.20;;
45806;SDS011;31507;51.494;7.518;2022-10-16T03:55:06;2.60;;;1.23;;
45806;SDS011;31507;51.494;7.518;2022-10-16T03:57:32;4.38;;;1.15;;
45806;SDS011;31507;51.494;7.518;2022-10-16T03:59:58;1.88;;;1.27;;
45806;SDS011;31507;51.494;7.518;2022-10-16T04:02:23;2.97;;;1.40;;
45806;SDS011;31507;51.494;7.518;2022-10-16T04:04:49;5.60;;;1.08;;
45806;SDS011;31507;51.494;7.518;2022-10-16T04:07:15;2.33;;;0.93;;
45806;SDS011;31507;51.494;7.518;2022-10-16T04:09:41;2.88;;;0.93;;
45806;SDS011;31507;51.494;7.518;2022-10-16T04:12:07;3.03;;;1.00;;
45806;SDS011;31507;51.494;7.518;2022-10-16T04:14:32;1.88;;;0.85;;
45806;SDS011;31507;51.494;7.518;2022-10-16T04:16:59;1.70;;;1.08;;
45806;SDS011;31507;51.494;7.518;2022-10-16T04:19:24;3.17;;;0.95;;
45806;SDS011;31507;51.494;7.518;2022-10-16T04:21:51;1.40;;;0.90;;
45806;SDS011;31507;51.494;7.518;2022-10-16T04:24:16;3.08;;;1.10;;
45806;SDS011;31507;51.494;7.518;2022-10-16T04:26:42;2.55;;;1.20;;
45806;SDS011;31507;51.494;7.518;2022-10-16T04:29:07;0.98;;;0.85;;
45806;SDS011;31507;51.494;7.518;2022-10-16T04:31:33;7.55;;;0.90;;
45806;SDS011;31507;51.494;7.518;2022-10-16T04:33:59;1.88;;;0.80;;
45806;SDS011;31507;51.494;7.518;2022-10-16T04:36:24;2.80;;;0.77;;
45806;SDS011;31507;51.494;7.518;2022-10-16T04:38:50;5.00;;;1.10;;
45806;SDS011;31507;51.494;7.518;2022-10-16T04:41:16;1.52;;;0.75;;
45806;SDS011;31507;51.494;7.518;2022-10-16T04:43:41;2.22;;;1.08;;
45806;SDS011;31507;51.494;7.518;2022-10-16T04:46:07;4.13;;;0.93;;
45806;SDS011;31507;51.494;7.518;2022-10-16T04:48:33;4.47;;;0.95;;
45806;SDS011;31507;51.494;7.518;2022-10-16T04:50:58;2.30;;;1.00;;
45806;SDS011;31507;51.494;7.518;2022-10-16T04:53:24;2.38;;;0.80;;
45806;SDS011;31507;51.494;7.518;2022-10-16T04:55:50;4.68;;;0.98;;
45806;SDS011;31507;51.494;7.518;2022-10-16T04:58:15;1.50;;;0.75;;
45806;SDS011;31507;51.494;7.518;2022-10-16T05:00:41;7.68;;;1.27;;
45806;SDS011;31507;51.494;7.518;2022-10-16T05:03:07;3.20;;;0.80;;
45806;SDS011;31507;51.494;7.518;2022-10-16T05:05:34;0.88;;;0.63;;
45806;SDS011;31507;51.494;7.518;2022-10-16T05:08:00;1.67;;;0.80;;
45806;SDS011;31507;51.494;7.518;2022-10-16T05:10:26;3.00;;;1.08;;
45806;SDS011;31507;51.494;7.518;2022-10-16T05:12:51;1.13;;;0.88;;
45806;SDS011;31507;51.494;7.518;2022-10-16T05:15:22;0.88;;;0.88;;
45806;SDS011;31507;51.494;7.518;2022-10-16T05:17:51;3.05;;;1.00;;
45806;SDS011;31507;51.494;7.518;2022-10-16T05:20:18;1.55;;;0.75;;
45806;SDS011;31507;51.494;7.518;2022-10-16T05:22:44;1.10;;;0.70;;
45806;SDS011;31507;51.494;7.518;2022-10-16T05:25:09;1.73;;;1.15;;
45806;SDS011;31507;51.494;7.518;2022-10-16T05:27:35;1.80;;;0.60;;
45806;SDS011;31507;51.494;7.518;2022-10-16T05:30:01;2.30;;;0.70;;
45806;SDS011;31507;51.494;7.518;2022-10-16T05:32:26;1.50;;;0.70;;
45806;SDS011;31507;51.494;7.518;2022-10-16T05:34:52;3.05;;;0.93;;
45806;SDS011;31507;51.494;7.518;2022-10-16T05:37:18;3.42;;;1.00;;
45806;SDS011;31507;51.494;7.518;2022-10-16T05:39:44;5.22;;;1.10;;
45806;SDS011;31507;51.494;7.518;2022-10-16T05:42:09;3.20;;;1.02;;
45806;SDS011;31507;51.494;7.518;2022-10-16T05:44:35;2.00;;;0.90;;
45806;SDS011;31507;51.494;7.518;2022-10-16T05:47:01;4.25;;;0.80;;
45806;SDS011;31507;51.494;7.518;2022-10-16T05:49:26;7.05;;;0.82;;
45806;SDS011;31507;51.494;7.518;2022-10-16T05:51:52;5.05;;;0.82;;
45806;SDS011;31507;51.494;7.518;2022-10-16T05:54:17;3.00;;;0.90;;
45806;SDS011;31507;51.494;7.518;2022-10-16T05:56:43;3.13;;;0.85;;
45806;SDS011;31507;51.494;7.518;2022-10-16T05:59:09;5.25;;;0.80;;
45806;SDS011;31507;51.494;7.518;2022-10-16T06:01:34;0.80;;;0.75;;
45806;SDS011;31507;51.494;7.518;2022-10-16T06:04:00;1.52;;;0.98;;
45806;SDS011;31507;51.494;7.518;2022-10-16T06:06:26;1.38;;;0.80;;
45806;SDS011;31507;51.494;7.518;2022-10-16T06:08:55;1.50;;;0.90;;
45806;SDS011;31507;51.494;7.518;2022-10-16T06:11:22;1.65;;;0.80;;
45806;SDS011;31507;51.494;7.518;2022-10-16T06:13:54;2.05;;;0.80;;
45806;SDS011;31507;51.494;7.518;2022-10-16T06:16:25;1.38;;;0.95;;
45806;SDS011;31507;51.494;7.518;2022-10-16T06:18:52;3.22;;;0.90;;
45806;SDS011;31507;51.494;7.518;2022-10-16T06:21:19;4.65;;;0.80;;
45806;SDS011;31507;51.494;7.518;2022-10-16T06:23:47;3.03;;;1.23;;
45806;SDS011;31507;51.494;7.518;2022-10-16T06:26:14;1.00;;;0.88;;
45806;SDS011;31507;51.494;7.518;2022-10-16T06:28:41;2.60;;;1.10;;
45806;SDS011;31507;51.494;7.518;2022-10-16T06:31:08;6.50;;;1.20;;
45806;SDS011;31507;51.494;7.518;2022-10-16T06:33:35;1.52;;;0.80;;
45806;SDS011;31507;51.494;7.518;2022-10-16T06:36:14;1.20;;;0.80;;
45806;SDS011;31507;51.494;7.518;2022-10-16T06:38:42;1.67;;;0.80;;
45806;SDS011;31507;51.494;7.518;2022-10-16T06:41:09;5.43;;;1.17;;
45806;SDS011;31507;51.494;7.518;2022-10-16T06:43:37;1.45;;;0.98;;
45806;SDS011;31507;51.494;7.518;2022-10-16T06:46:04;6.22;;;1.02;;
45806;SDS011;31507;51.494;7.518;2022-10-16T06:48:32;4.78;;;0.95;;
45806;SDS011;31507;51.494;7.518;2022-10-16T06:53:30;4.80;;;1.20;;
45806;SDS011;31507;51.494;7.518;2022-10-16T06:55:57;3.88;;;1.60;;
45806;SDS011;31507;51.494;7.518;2022-10-16T06:58:22;1.80;;;0.82;;
45806;SDS011;31507;51.494;7.518;2022-10-16T07:00:49;4.13;;;1.00;;
45806;SDS011;31507;51.494;7.518;2022-10-16T07:03:19;1.52;;;0.95;;
45806;SDS011;31507;51.494;7.518;2022-10-16T07:05:45;3.25;;;0.80;;
45806;SDS011;31507;51.494;7.518;2022-10-16T07:08:11;3.55;;;1.00;;
45806;SDS011;31507;51.494;7.518;2022-10-16T07:10:36;2.05;;;0.80;;
45806;SDS011;31507;51.494;7.518;2022-10-16T07:13:02;4.05;;;1.05;;
45806;SDS011;31507;51.494;7.518;2022-10-16T07:15:28;1.48;;;1.15;;
45806;SDS011;31507;51.494;7.518;2022-10-16T07:18:01;0.65;;;0.65;;
45806;SDS011;31507;51.494;7.518;2022-10-16T07:20:27;5.57;;;1.17;;
45806;SDS011;31507;51.494;7.518;2022-10-16T07:22:52;1.42;;;0.88;;
45806;SDS011;31507;51.494;7.518;2022-10-16T07:25:18;6.47;;;1.02;;
45806;SDS011;31507;51.494;7.518;2022-10-16T07:27:43;4.13;;;0.90;;
45806;SDS011;31507;51.494;7.518;2022-10-16T07:30:09;3.83;;;0.77;;
45806;SDS011;31507;51.494;7.518;2022-10-16T07:32:35;3.25;;;0.73;;
45806;SDS011;31507;51.494;7.518;2022-10-16T07:35:00;6.32;;;1.08;;
45806;SDS011;31507;51.494;7.518;2022-10-16T07:37:26;1.17;;;0.95;;
45806;SDS011;31507;51.494;7.518;2022-10-16T07:39:52;5.35;;;1.23;;
45806;SDS011;31507;51.494;7.518;2022-10-16T07:42:17;1.90;;;1.10;;
45806;SDS011;31507;51.494;7.518;2022-10-16T07:44:44;0.93;;;0.90;;
45806;SDS011;31507;51.494;7.518;2022-10-16T07:47:10;3.33;;;0.90;;
45806;SDS011;31507;51.494;7.518;2022-10-16T07:49:36;1.83;;;1.20;;
45806;SDS011;31507;51.494;7.518;2022-10-16T07:52:01;2.15;;;1.25;;
45806;SDS011;31507;51.494;7.518;2022-10-16T07:54:27;4.53;;;1.02;;
45806;SDS011;31507;51.494;7.518;2022-10-16T07:56:53;4.57;;;1.17;;
45806;SDS011;31507;51.494;7.518;2022-10-16T07:59:18;1.83;;;0.85;;
45806;SDS011;31507;51.494;7.518;2022-10-16T08:01:44;2.67;;;0.93;;
45806;SDS011;31507;51.494;7.518;2022-10-16T08:04:10;2.67;;;0.85;;
45806;SDS011;31507;51.494;7.518;2022-10-16T08:06:36;2.08;;;1.27;;
45806;SDS011;31507;51.494;7.518;2022-10-16T08:09:03;3.15;;;0.90;;
45806;SDS011;31507;51.494;7.518;2022-10-16T08:11:29;5.55;;;0.88;;
45806;SDS011;31507;51.494;7.518;2022-10-16T08:13:55;2.95;;;0.80;;
45806;SDS011;31507;51.494;7.518;2022-10-16T08:16:20;1.75;;;0.93;;
45806;SDS011;31507;51.494;7.518;2022-10-16T08:18:46;2.15;;;1.00;;
45806;SDS011;31507;51.494;7.518;2022-10-16T08:21:13;1.35;;;0.90;;
45806;SDS011;31507;51.494;7.518;2022-10-16T08:23:40;4.00;;;0.80;;
45806;SDS011;31507;51.494;7.518;2022-10-16T08:26:06;4.35;;;1.10;;
45806;SDS011;31507;51.494;7.518;2022-10-16T08:28:33;2.72;;;1.15;;
45806;SDS011;31507;51.494;7.518;2022-10-16T08:31:07;2.17;;;0.80;;
45806;SDS011;31507;51.494;7.518;2022-10-16T08:33:37;2.90;;;0.90;;
45806;SDS011;31507;51.494;7.518;2022-10-16T08:36:04;3.42;;;1.05;;
45806;SDS011;31507;51.494;7.518;2022-10-16T08:38:31;2.20;;;1.00;;
45806;SDS011;31507;51.494;7.518;2022-10-16T08:41:00;2.55;;;0.85;;
45806;SDS011;31507;51.494;7.518;2022-10-16T08:49:15;1.48;;;0.80;;
45806;SDS011;31507;51.494;7.518;2022-10-16T08:51:43;1.92;;;0.80;;
45806;SDS011;31507;51.494;7.518;2022-10-16T08:56:46;6.53;;;0.82;;
45806;SDS011;31507;51.494;7.518;2022-10-16T08:59:15;2.38;;;0.80;;
45806;SDS011;31507;51.494;7.518;2022-10-16T09:01:44;4.75;;;1.10;;
45806;SDS011;31507;51.494;7.518;2022-10-16T09:09:44;2.75;;;1.00;;
45806;SDS011;31507;51.494;7.518;2022-10-16T09:22:48;1.67;;;0.82;;
45806;SDS011;31507;51.494;7.518;2022-10-16T09:25:18;1.75;;;0.93;;
45806;SDS011;31507;51.494;7.518;2022-10-16T09:27:47;2.45;;;0.80;;
45806;SDS011;31507;51.494;7.518;2022-10-16T09:30:14;8.40;;;1.10;;
45806;SDS011;31507;51.494;7.518;2022-10-16T09:32:43;3.58;;;0.75;;
45806;SDS011;31507;51.494;7.518;2022-10-16T09:35:11;3.00;;;0.90;;
45806;SDS011;31507;51.494;7.518;2022-10-16T09:37:41;3.10;;;0.60;;
45806;SDS011;31507;51.494;7.518;2022-10-16T09:40:13;1.90;;;0.60;;
45806;SDS011;31507;51.494;7.518;2022-10-16T09:45:42;2.35;;;0.90;;
45806;SDS011;31507;51.494;7.518;2022-10-16T09:48:18;4.15;;;0.95;;
45806;SDS011;31507;51.494;7.518;2022-10-16T09:50:55;3.38;;;0.63;;
45806;SDS011;31507;51.494;7.518;2022-10-16T09:53:46;4.55;;;1.10;;
45806;SDS011;31507;51.494;7.518;2022-10-16T09:56:20;2.90;;;1.10;;
45806;SDS011;31507;51.494;7.518;2022-10-16T09:58:52;3.85;;;0.95;;
45806;SDS011;31507;51.494;7.518;2022-10-16T10:01:19;2.35;;;0.80;;
45806;SDS011;31507;51.494;7.518;2022-10-16T10:03:47;3.05;;;0.85;;
45806;SDS011;31507;51.494;7.518;2022-10-16T10:06:19;2.30;;;0.75;;
45806;SDS011;31507;51.494;7.518;2022-10-16T10:11:45;2.13;;;0.70;;
45806;SDS011;31507;51.494;7.518;2022-10-16T10:14:16;3.80;;;0.80;;
45806;SDS011;31507;51.494;7.518;2022-10-16T10:16:45;4.20;;;0.95;;
45806;SDS011;31507;51.494;7.518;2022-10-16T10:19:15;0.73;;;0.60;;
45806;SDS011;31507;51.494;7.518;2022-10-16T10:21:45;4.38;;;1.00;;
45806;SDS011;31507;51.494;7.518;2022-10-16T10:24:12;8.13;;;0.90;;
45806;SDS011;31507;51.494;7.518;2022-10-16T10:26:51;2.67;;;0.73;;
45806;SDS011;31507;51.494;7.518;2022-10-16T10:29:31;3.72;;;1.20;;
45806;SDS011;31507;51.494;7.518;2022-10-16T10:32:07;2.85;;;0.60;;
45806;SDS011;31507;51.494;7.518;2022-10-16T10:35:02;3.45;;;0.65;;
45806;SDS011;31507;51.494;7.518;2022-10-16T10:40:52;3.72;;;1.08;;
45806;SDS011;31507;51.494;7.518;2022-10-16T10:43:38;4.68;;;0.98;;
45806;SDS011;31507;51.494;7.518;2022-10-16T10:46:06;3.67;;;0.93;;
45806;SDS011;31507;51.494;7.518;2022-10-16T10:51:22;4.70;;;1.30;;
45806;SDS011;31507;51.494;7.518;2022-10-16T10:56:22;2.92;;;1.00;;
45806;SDS011;31507;51.494;7.518;2022-10-16T11:01:50;2.72;;;0.80;;
45806;SDS011;31507;51.494;7.518;2022-10-16T11:06:55;4.15;;;1.10;;
45806;SDS011;31507;51.494;7.518;2022-10-16T11:09:34;2.42;;;0.70;;
45806;SDS011;31507;51.494;7.518;2022-10-16T11:14:57;6.60;;;1.05;;
45806;SDS011;31507;51.494;7.518;2022-10-16T11:18:12;2.72;;;0.60;;
45806;SDS011;31507;51.494;7.518;2022-10-16T11:25:39;2.65;;;0.82;;
45806;SDS011;31507;51.494;7.518;2022-10-16T11:36:28;2.47;;;0.60;;
45806;SDS011;31507;51.494;7.518;2022-10-16T11:39:16;3.25;;;0.80;;
45806;SDS011;31507;51.494;7.518;2022-10-16T11:49:53;2.45;;;0.73;;
45806;SDS011;31507;51.494;7.518;2022-10-16T11:55:02;3.45;;;1.25;;
45806;SDS011;31507;51.494;7.518;2022-10-16T11:57:35;1.33;;;0.63;;
45806;SDS011;31507;51.494;7.518;2022-10-16T12:00:09;3.58;;;0.90;;
45806;SDS011;31507;51.494;7.518;2022-10-16T12:07:48;2.72;;;0.65;;
45806;SDS011;31507;51.494;7.518;2022-10-16T12:10:19;1.55;;;0.70;;
45806;SDS011;31507;51.494;7.518;2022-10-16T12:12:46;2.40;;;0.65;;
45806;SDS011;31507;51.494;7.518;2022-10-16T12:17:46;2.42;;;0.68;;
45806;SDS011;31507;51.494;7.518;2022-10-16T12:22:40;3.20;;;0.75;;
45806;SDS011;31507;51.494;7.518;2022-10-16T12:30:40;1.90;;;0.65;;
45806;SDS011;31507;51.494;7.518;2022-10-16T12:35:52;3.58;;;0.93;;
45806;SDS011;31507;51.494;7.518;2022-10-16T12:41:23;1.65;;;0.70;;
45806;SDS011;31507;51.494;7.518;2022-10-16T12:43:51;6.45;;;1.30;;
45806;SDS011;31507;51.494;7.518;2022-10-16T12:48:43;4.70;;;0.55;;
45806;SDS011;31507;51.494;7.518;2022-10-16T12:54:10;1.67;;;0.77;;
45806;SDS011;31507;51.494;7.518;2022-10-16T12:57:08;2.05;;;0.60;;
45806;SDS011;31507;51.494;7.518;2022-10-16T13:05:19;2.83;;;0.50;;
45806;SDS011;31507;51.494;7.518;2022-10-16T13:10:57;2.72;;;0.63;;
45806;SDS011;31507;51.494;7.518;2022-10-16T13:13:29;3.53;;;0.57;;
45806;SDS011;31507;51.494;7.518;2022-10-16T13:16:30;0.52;;;0.43;;
45806;SDS011;31507;51.494;7.518;2022-10-16T13:19:21;2.78;;;0.60;;
45806;SDS011;31507;51.494;7.518;2022-10-16T13:22:15;4.90;;;0.70;;
45806;SDS011;31507;51.494;7.518;2022-10-16T13:30:24;2.60;;;0.60;;
45806;SDS011;31507;51.494;7.518;2022-10-16T13:33:13;2.65;;;0.70;;
45806;SDS011;31507;51.494;7.518;2022-10-16T13:35:46;1.50;;;0.52;;
45806;SDS011;31507;51.494;7.518;2022-10-16T13:38:16;3.92;;;0.80;;
45806;SDS011;31507;51.494;7.518;2022-10-16T13:40:53;3.45;;;1.10;;
45806;SDS011;31507;51.494;7.518;2022-10-16T13:46:18;1.70;;;0.60;;
45806;SDS011;31507;51.494;7.518;2022-10-16T13:51:56;1.88;;;0.80;;
45806;SDS011;31507;51.494;7.518;2022-10-16T13:54:23;6.32;;;0.60;;
45806;SDS011;31507;51.494;7.518;2022-10-16T13:56:53;2.40;;;0.98;;
45806;SDS011;31507;51.494;7.518;2022-10-16T13:59:24;4.55;;;0.80;;
45806;SDS011;31507;51.494;7.518;2022-10-16T14:02:00;1.00;;;0.50;;
45806;SDS011;31507;51.494;7.518;2022-10-16T14:04:39;3.55;;;0.75;;
45806;SDS011;31507;51.494;7.518;2022-10-16T14:07:11;4.57;;;0.88;;
45806;SDS011;31507;51.494;7.518;2022-10-16T14:09:50;1.58;;;0.70;;
45806;SDS011;31507;51.494;7.518;2022-10-16T14:12:16;2.63;;;0.60;;
45806;SDS011;31507;51.494;7.518;2022-10-16T14:14:46;1.67;;;0.57;;
45806;SDS011;31507;51.494;7.518;2022-10-16T14:17:14;1.55;;;0.80;;
45806;SDS011;31507;51.494;7.518;2022-10-16T14:19:58;2.28;;;0.82;;
45806;SDS011;31507;51.494;7.518;2022-10-16T14:22:32;6.53;;;0.57;;
45806;SDS011;31507;51.494;7.518;2022-10-16T14:24:59;4.05;;;1.00;;
45806;SDS011;31507;51.494;7.518;2022-10-16T14:27:29;4.32;;;0.77;;
45806;SDS011;31507;51.494;7.518;2022-10-16T14:30:05;1.70;;;0.80;;
45806;SDS011;31507;51.494;7.518;2022-10-16T14:32:39;4.18;;;0.80;;
45806;SDS011;31507;51.494;7.518;2022-10-16T14:35:21;6.63;;;0.98;;
45806;SDS011;31507;51.494;7.518;2022-10-16T14:37:56;4.65;;;1.10;;
45806;SDS011;31507;51.494;7.518;2022-10-16T14:40:28;3.22;;;1.02;;
45806;SDS011;31507;51.494;7.518;2022-10-16T14:42:55;1.83;;;0.73;;
45806;SDS011;31507;51.494;7.518;2022-10-16T14:45:23;1.90;;;0.80;;
45806;SDS011;31507;51.494;7.518;2022-10-16T14:47:52;1.55;;;0.60;;
45806;SDS011;31507;51.494;7.518;2022-10-16T14:50:21;1.30;;;0.75;;
45806;SDS011;31507;51.494;7.518;2022-10-16T14:52:47;3.72;;;0.93;;
45806;SDS011;31507;51.494;7.518;2022-10-16T14:55:12;1.85;;;0.95;;
45806;SDS011;31507;51.494;7.518;2022-10-16T14:57:38;3.17;;;0.82;;
45806;SDS011;31507;51.494;7.518;2022-10-16T15:00:18;0.80;;;0.65;;
45806;SDS011;31507;51.494;7.518;2022-10-16T15:02:47;4.72;;;0.90;;
45806;SDS011;31507;51.494;7.518;2022-10-16T15:05:19;1.50;;;0.90;;
45806;SDS011;31507;51.494;7.518;2022-10-16T15:07:47;2.53;;;0.75;;
45806;SDS011;31507;51.494;7.518;2022-10-16T15:10:14;3.17;;;1.10;;
45806;SDS011;31507;51.494;7.518;2022-10-16T15:12:44;1.38;;;0.73;;
45806;SDS011;31507;51.494;7.518;2022-10-16T15:15:33;4.07;;;0.77;;
45806;SDS011;31507;51.494;7.518;2022-10-16T15:18:03;4.18;;;1.13;;
45806;SDS011;31507;51.494;7.518;2022-10-16T15:20:30;3.80;;;0.90;;
45806;SDS011;31507;51.494;7.518;2022-10-16T15:22:59;2.55;;;0.82;;
45806;SDS011;31507;51.494;7.518;2022-10-16T15:25:37;4.75;;;1.40;;
45806;SDS011;31507;51.494;7.518;2022-10-16T15:28:05;4.50;;;1.10;;
45806;SDS011;31507;51.494;7.518;2022-10-16T15:30:32;4.00;;;1.10;;
45806;SDS011;31507;51.494;7.518;2022-10-16T15:32:57;4.03;;;1.10;;
45806;SDS011;31507;51.494;7.518;2022-10-16T15:35:23;2.50;;;1.02;;
45806;SDS011;31507;51.494;7.518;2022-10-16T15:37:49;2.53;;;0.93;;
45806;SDS011;31507;51.494;7.518;2022-10-16T15:40:15;2.97;;;1.10;;
45806;SDS011;31507;51.494;7.518;2022-10-16T15:42:42;2.47;;;1.05;;
45806;SDS011;31507;51.494;7.518;2022-10-16T15:45:08;2.38;;;1.13;;
45806;SDS011;31507;51.494;7.518;2022-10-16T15:47:34;3.65;;;1.27;;
45806;SDS011;31507;51.494;7.518;2022-10-16T15:50:00;3.13;;;1.17;;
45806;SDS011;31507;51.494;7.518;2022-10-16T15:52:26;2.42;;;1.10;;
45806;SDS011;31507;51.494;7.518;2022-10-16T15:54:53;4.38;;;1.40;;
45806;SDS011;31507;51.494;7.518;2022-10-16T15:57:19;6.78;;;2.08;;
45806;SDS011;31507;51.494;7.518;2022-10-16T15:59:45;6.97;;;1.60;;
45806;SDS011;31507;51.494;7.518;2022-10-16T16:02:10;6.35;;;1.30;;
45806;SDS011;31507;51.494;7.518;2022-10-16T16:04:36;6.68;;;1.33;;
45806;SDS011;31507;51.494;7.518;2022-10-16T16:07:02;2.80;;;1.20;;
45806;SDS011;31507;51.494;7.518;2022-10-16T16:09:30;2.85;;;1.38;;
45806;SDS011;31507;51.494;7.518;2022-10-16T16:11:56;5.70;;;1.17;;
45806;SDS011;31507;51.494;7.518;2022-10-16T16:14:24;3.70;;;1.05;;
45806;SDS011;31507;51.494;7.518;2022-10-16T16:16:51;6.35;;;1.48;;
45806;SDS011;31507;51.494;7.518;2022-10-16T16:19:16;3.97;;;1.05;;
45806;SDS011;31507;51.494;7.518;2022-10-16T16:21:45;3.50;;;1.10;;
45806;SDS011;31507;51.494;7.518;2022-10-16T16:24:11;4.50;;;1.33;;
45806;SDS011;31507;51.494;7.518;2022-10-16T16:26:37;3.17;;;1.13;;
45806;SDS011;31507;51.494;7.518;2022-10-16T16:29:04;4.47;;;1.00;;
45806;SDS011;31507;51.494;7.518;2022-10-16T16:31:31;4.30;;;1.17;;
45806;SDS011;31507;51.494;7.518;2022-10-16T16:33:59;2.08;;;0.90;;
45806;SDS011;31507;51.494;7.518;2022-10-16T16:36:25;6.78;;;1.15;;
45806;SDS011;31507;51.494;7.518;2022-10-16T16:38:50;3.95;;;0.90;;
45806;SDS011;31507;51.494;7.518;2022-10-16T16:41:20;2.38;;;1.00;;
45806;SDS011;31507;51.494;7.518;2022-10-16T16:43:48;1.80;;;0.90;;
45806;SDS011;31507;51.494;7.518;2022-10-16T16:46:16;1.73;;;0.80;;
45806;SDS011;31507;51.494;7.518;2022-10-16T16:48:41;1.92;;;0.98;;
45806;SDS011;31507;51.494;7.518;2022-10-16T16:51:09;3.78;;;1.23;;
45806;SDS011;31507;51.494;7.518;2022-10-16T16:53:41;2.35;;;0.90;;
45806;SDS011;31507;51.494;7.518;2022-10-16T16:56:07;2.33;;;1.05;;
45806;SDS011;31507;51.494;7.518;2022-10-16T16:58:33;1.85;;;0.90;;
45806;SDS011;31507;51.494;7.518;2022-10-16T17:01:00;3.30;;;1.27;;
45806;SDS011;31507;51.494;7.518;2022-10-16T17:03:33;4.80;;;1.42;;
45806;SDS011;31507;51.494;7.518;2022-10-16T17:06:00;4.53;;;2.05;;
45806;SDS011;31507;51.494;7.518;2022-10-16T17:08:28;2.08;;;1.27;;